createdAt,value
2022-10-06T00:01:32.150Z,3.80
2022-10-06T00:04:00.781Z,3.50
2022-10-06T00:06:29.957Z,3.90
2022-10-06T00:08:58.681Z,3.30
2022-10-06T00:11:27.074Z,3.80
2022-10-06T00:13:55.064Z,4.20
2022-10-06T00:16:24.700Z,3.50
2022-10-06T00:18:53.672Z,3.70
2022-10-06T00:21:21.363Z,3.30
2022-10-06T00:23:50.138Z,3.50
2022-10-06T00:26:18.070Z,3.90
2022-10-06T00:28:48.978Z,3.10
2022-10-06T00:31:20.833Z,3.70
2022-10-06T00:33:50.516Z,3.40
2022-10-06T00:36:21.213Z,3.80
2022-10-06T00:38:49.510Z,3.40
2022-10-06T00:41:19.590Z,3.50
2022-10-06T00:43:57.926Z,3.30
2022-10-06T00:46:46.294Z,3.50
2022-10-06T00:49:24.562Z,3.30
2022-10-06T00:52:03.060Z,3.40
2022-10-06T00:54:33.591Z,3.40
2022-10-06T00:57:04.432Z,3.60
2022-10-06T00:59:33.583Z,4.20
2022-10-06T01:02:04.622Z,3.10
2022-10-06T01:04:38.490Z,3.50
2022-10-06T01:07:08.679Z,3.70
2022-10-06T01:09:38.107Z,3.50
2022-10-06T01:12:08.816Z,3.10
2022-10-06T01:14:39.293Z,3.80
2022-10-06T01:17:12.820Z,3.30
2022-10-06T01:20:15.036Z,3.60
2022-10-06T01:22:47.683Z,3.90
2022-10-06T01:25:18.502Z,3.50
2022-10-06T01:27:54.886Z,3.70
2022-10-06T01:30:52.909Z,4.00
2022-10-06T01:33:22.621Z,3.70
2022-10-06T01:35:53.126Z,3.40
2022-10-06T01:38:22.299Z,3.70
2022-10-06T01:40:54.095Z,3.50
2022-10-06T01:43:22.144Z,3.40
2022-10-06T01:45:56.645Z,3.50
2022-10-06T01:50:54.789Z,3.80
2022-10-06T01:53:23.501Z,3.80
2022-10-06T01:55:51.397Z,3.30
2022-10-06T01:58:19.101Z,4.30
2022-10-06T02:00:46.911Z,3.60
2022-10-06T02:03:14.921Z,4.20
2022-10-06T02:05:43.730Z,3.50
2022-10-06T02:08:11.670Z,3.40
2022-10-06T02:10:40.791Z,3.30
2022-10-06T02:13:10.827Z,3.80
2022-10-06T02:15:39.581Z,3.50
2022-10-06T02:18:09.902Z,3.90
2022-10-06T02:20:37.598Z,3.60
2022-10-06T02:23:06.613Z,4.00
2022-10-06T02:25:34.485Z,3.70
2022-10-06T02:28:02.446Z,3.30
2022-10-06T02:30:30.427Z,3.50
2022-10-06T02:32:59.435Z,3.60
2022-10-06T02:35:27.134Z,3.70
2022-10-06T02:37:54.825Z,4.00
2022-10-06T02:40:24.293Z,3.70
2022-10-06T02:42:53.992Z,3.20
2022-10-06T02:45:22.738Z,4.10
2022-10-06T02:47:50.662Z,3.10
2022-10-06T02:50:18.556Z,3.40
2022-10-06T02:52:47.724Z,3.50
2022-10-06T02:55:15.501Z,3.40
2022-10-06T02:57:43.510Z,4.90
2022-10-06T03:00:13.053Z,3.40
2022-10-06T03:02:40.795Z,3.80
2022-10-06T03:05:09.512Z,3.50
2022-10-06T03:07:38.720Z,4.00
2022-10-06T03:10:08.890Z,3.70
2022-10-06T03:12:36.737Z,4.00
2022-10-06T03:15:07.384Z,3.80
2022-10-06T03:17:35.074Z,3.90
2022-10-06T03:20:02.758Z,4.10
2022-10-06T03:22:31.234Z,3.70
2022-10-06T03:25:00.337Z,3.70
2022-10-06T03:27:28.089Z,3.80
2022-10-06T03:29:56.004Z,4.10
2022-10-06T03:32:25.116Z,3.90
2022-10-06T03:34:54.524Z,3.80
2022-10-06T03:37:22.951Z,4.00
2022-10-06T03:39:52.946Z,3.70
2022-10-06T03:42:20.739Z,4.30
2022-10-06T03:44:48.642Z,3.80
2022-10-06T03:47:17.645Z,3.60
2022-10-06T03:49:48.929Z,3.70
2022-10-06T03:52:16.866Z,4.50
2022-10-06T03:54:46.691Z,4.10
2022-10-06T03:57:16.291Z,4.10
2022-10-06T03:59:46.150Z,4.00
2022-10-06T04:02:13.886Z,3.90
2022-10-06T04:04:42.818Z,4.00
2022-10-06T04:07:11.789Z,4.30
2022-10-06T04:09:40.715Z,4.20
2022-10-06T04:12:08.424Z,4.20
2022-10-06T04:14:36.140Z,4.40
2022-10-06T04:17:04.059Z,4.10
2022-10-06T04:19:33.005Z,4.10
2022-10-06T04:22:00.961Z,4.80
2022-10-06T04:24:30.112Z,4.20
2022-10-06T04:27:18.019Z,4.40
2022-10-06T04:29:47.062Z,4.40
2022-10-06T04:32:17.154Z,4.10
2022-10-06T04:34:44.892Z,4.10
2022-10-06T04:37:12.540Z,4.40
2022-10-06T04:39:42.170Z,4.10
2022-10-06T04:42:10.596Z,4.50
2022-10-06T04:44:38.537Z,4.40
2022-10-06T04:47:07.477Z,4.40
2022-10-06T04:49:35.660Z,4.90
2022-10-06T04:52:04.680Z,4.20
2022-10-06T04:54:34.046Z,4.00
2022-10-06T04:57:02.928Z,4.10
2022-10-06T04:59:51.879Z,4.50
2022-10-06T05:02:21.639Z,4.70
2022-10-06T05:04:49.485Z,4.40
2022-10-06T05:07:17.531Z,4.40
2022-10-06T05:09:45.606Z,4.40
2022-10-06T05:12:13.774Z,4.60
2022-10-06T05:14:41.668Z,4.80
2022-10-06T05:17:09.425Z,4.00
2022-10-06T05:19:38.521Z,4.90
2022-10-06T05:22:06.777Z,4.60
2022-10-06T05:24:35.293Z,4.60
2022-10-06T05:27:04.038Z,4.80
2022-10-06T05:29:32.092Z,4.00
2022-10-06T05:31:59.849Z,4.60
2022-10-06T05:34:27.634Z,4.90
2022-10-06T05:36:55.321Z,4.20
2022-10-06T05:39:23.246Z,4.40
2022-10-06T05:41:53.459Z,4.60
2022-10-06T05:44:22.620Z,4.60
2022-10-06T05:46:52.669Z,4.60
2022-10-06T05:49:25.246Z,4.60
2022-10-06T05:51:54.548Z,4.70
2022-10-06T05:54:22.533Z,4.80
2022-10-06T05:56:52.371Z,4.40
2022-10-06T05:59:20.490Z,4.30
2022-10-06T06:01:48.683Z,4.80
2022-10-06T06:04:18.330Z,4.30
2022-10-06T06:06:50.015Z,4.70
2022-10-06T06:09:21.377Z,4.80
2022-10-06T06:11:54.693Z,4.50
2022-10-06T06:14:42.814Z,4.20
2022-10-06T06:17:12.824Z,4.40
2022-10-06T06:19:41.831Z,4.20
2022-10-06T06:22:10.864Z,4.30
2022-10-06T06:24:38.591Z,4.80
2022-10-06T06:27:06.516Z,4.40
2022-10-06T06:29:35.904Z,4.80
2022-10-06T06:32:04.839Z,5.00
2022-10-06T06:34:32.740Z,4.40
2022-10-06T06:37:06.912Z,5.10
2022-10-06T06:39:37.307Z,4.50
2022-10-06T06:42:08.888Z,4.30
2022-10-06T06:44:37.464Z,4.60
2022-10-06T06:47:05.156Z,4.40
2022-10-06T06:49:32.846Z,4.30
2022-10-06T06:52:04.325Z,4.40
2022-10-06T06:54:32.777Z,4.10
2022-10-06T06:57:01.612Z,4.20
2022-10-06T06:59:35.322Z,4.80
2022-10-06T07:02:04.465Z,4.20
2022-10-06T07:04:33.412Z,4.50
2022-10-06T07:07:02.596Z,4.40
2022-10-06T07:09:30.486Z,4.30
2022-10-06T07:11:58.381Z,4.80
2022-10-06T07:14:26.095Z,4.70
2022-10-06T07:17:13.868Z,4.50
2022-10-06T07:20:01.651Z,4.70
2022-10-06T07:22:49.038Z,4.20
2022-10-06T07:25:28.984Z,3.90
2022-10-06T07:27:56.788Z,4.40
2022-10-06T07:30:29.057Z,6.40
2022-10-06T07:32:57.010Z,21.10
2022-10-06T07:35:26.022Z,20.60
2022-10-06T07:37:54.200Z,11.40
2022-10-06T07:40:23.900Z,9.40
2022-10-06T07:42:54.133Z,7.80
2022-10-06T07:45:42.155Z,8.30
2022-10-06T07:48:16.291Z,7.10
2022-10-06T07:50:49.165Z,9.50
2022-10-06T07:53:19.140Z,7.30
2022-10-06T07:55:50.741Z,7.30
2022-10-06T07:58:24.036Z,6.20
2022-10-06T08:00:53.734Z,5.90
2022-10-06T08:03:23.213Z,4.90
2022-10-06T08:05:58.660Z,5.20
2022-10-06T08:08:31.285Z,4.70
2022-10-06T08:11:01.907Z,4.40
2022-10-06T08:13:34.871Z,4.80
2022-10-06T08:16:06.906Z,3.70
2022-10-06T08:18:45.934Z,4.40
2022-10-06T08:21:29.884Z,4.60
2022-10-06T08:24:00.941Z,4.60
2022-10-06T08:26:31.261Z,4.10
2022-10-06T08:29:03.971Z,4.70
2022-10-06T08:31:33.400Z,4.90
2022-10-06T08:34:02.867Z,6.80
2022-10-06T08:36:32.765Z,4.80
2022-10-06T08:39:01.874Z,4.00
2022-10-06T08:41:32.626Z,3.70
2022-10-06T08:44:20.606Z,3.80
2022-10-06T08:47:14.943Z,4.00
2022-10-06T08:49:47.254Z,3.80
2022-10-06T08:52:52.840Z,3.80
2022-10-06T08:55:55.524Z,3.80
2022-10-06T08:58:23.453Z,3.90
2022-10-06T09:00:58.113Z,3.60
2022-10-06T09:03:30.131Z,3.30
2022-10-06T09:06:13.531Z,3.50
2022-10-06T09:08:53.965Z,4.00
2022-10-06T09:11:44.050Z,3.90
2022-10-06T09:14:38.575Z,5.40
2022-10-06T09:17:14.340Z,3.90
2022-10-06T09:19:59.151Z,4.00
2022-10-06T09:22:32.996Z,3.70
2022-10-06T09:25:20.445Z,3.50
2022-10-06T09:28:04.292Z,3.60
2022-10-06T09:30:32.950Z,3.60
2022-10-06T09:33:05.679Z,3.60
2022-10-06T09:35:33.764Z,3.80
2022-10-06T09:38:08.958Z,3.70
2022-10-06T09:40:54.621Z,3.80
2022-10-06T09:43:29.401Z,4.30
2022-10-06T09:46:29.145Z,5.40
2022-10-06T09:49:18.529Z,3.80
2022-10-06T09:52:19.442Z,4.50
2022-10-06T09:55:23.953Z,3.80
2022-10-06T09:57:56.238Z,4.00
2022-10-06T10:00:38.615Z,3.60
2022-10-06T10:03:12.288Z,3.90
2022-10-06T10:05:48.040Z,3.90
2022-10-06T10:08:24.170Z,4.00
2022-10-06T10:11:32.083Z,3.90
2022-10-06T10:14:00.875Z,3.60
2022-10-06T10:16:35.664Z,3.90
2022-10-06T10:19:06.419Z,4.20
2022-10-06T10:21:37.138Z,4.70
2022-10-06T10:24:15.636Z,4.70
2022-10-06T10:27:07.372Z,4.30
2022-10-06T10:29:45.669Z,3.80
2022-10-06T10:32:18.404Z,3.80
2022-10-06T10:35:04.304Z,3.90
2022-10-06T10:37:45.489Z,3.90
2022-10-06T10:40:29.540Z,4.10
2022-10-06T10:43:13.545Z,4.30
2022-10-06T10:45:50.172Z,4.00
2022-10-06T10:49:02.244Z,4.50
2022-10-06T10:51:37.426Z,4.00
2022-10-06T10:54:20.924Z,4.40
2022-10-06T10:59:24.552Z,3.40
2022-10-06T11:02:02.862Z,3.30
2022-10-06T11:04:32.191Z,3.40
2022-10-06T11:07:30.502Z,3.60
2022-10-06T11:10:18.621Z,3.60
2022-10-06T11:13:06.317Z,4.10
2022-10-06T11:15:52.897Z,4.00
2022-10-06T11:18:42.028Z,4.30
2022-10-06T11:21:46.431Z,3.50
2022-10-06T11:24:43.159Z,3.60
2022-10-06T11:27:23.443Z,3.50
2022-10-06T11:30:26.449Z,3.80
2022-10-06T11:33:30.415Z,3.50
2022-10-06T11:36:02.504Z,3.30
2022-10-06T11:38:42.501Z,4.00
2022-10-06T11:41:21.250Z,4.20
2022-10-06T11:44:00.719Z,4.00
2022-10-06T11:46:52.543Z,3.50
2022-10-06T11:49:30.422Z,4.10
2022-10-06T11:52:08.231Z,3.50
2022-10-06T11:54:40.186Z,4.00
2022-10-06T11:57:30.273Z,4.20
2022-10-06T12:00:04.846Z,3.70
2022-10-06T12:02:33.614Z,4.10
2022-10-06T12:08:09.214Z,4.20
2022-10-06T12:10:50.015Z,3.90
2022-10-06T12:14:26.550Z,4.10
2022-10-06T12:19:50.948Z,3.50
2022-10-06T12:22:31.577Z,4.10
2022-10-06T12:25:32.971Z,3.90
2022-10-06T12:28:20.664Z,4.00
2022-10-06T12:31:17.978Z,4.00
2022-10-06T12:33:48.956Z,4.00
2022-10-06T12:36:30.265Z,4.20
2022-10-06T12:39:07.200Z,3.80
2022-10-06T12:42:07.632Z,4.20
2022-10-06T12:44:43.528Z,4.00
2022-10-06T12:47:31.167Z,3.60
2022-10-06T12:50:27.726Z,3.70
2022-10-06T12:53:09.806Z,3.80
2022-10-06T12:55:53.493Z,3.80
2022-10-06T12:58:32.497Z,4.40
2022-10-06T13:01:12.644Z,4.90
2022-10-06T13:03:48.348Z,4.40
2022-10-06T13:06:23.442Z,4.20
2022-10-06T13:09:13.919Z,4.20
2022-10-06T13:11:41.973Z,4.60
2022-10-06T13:14:14.636Z,4.10
2022-10-06T13:16:48.203Z,4.30
2022-10-06T13:19:25.901Z,4.00
2022-10-06T13:21:55.689Z,4.10
2022-10-06T13:24:28.340Z,4.10
2022-10-06T13:26:57.156Z,4.00
2022-10-06T13:29:28.588Z,4.20
2022-10-06T13:31:56.969Z,5.00
2022-10-06T13:34:44.586Z,4.10
2022-10-06T13:37:16.776Z,4.20
2022-10-06T13:39:45.865Z,3.70
2022-10-06T13:42:21.501Z,4.00
2022-10-06T13:45:01.864Z,4.00
2022-10-06T13:47:30.920Z,4.30
2022-10-06T13:50:07.798Z,4.10
2022-10-06T13:52:44.400Z,4.20
2022-10-06T13:55:23.178Z,4.80
2022-10-06T13:58:03.453Z,4.60
2022-10-06T14:01:01.349Z,4.20
2022-10-06T14:06:19.039Z,3.80
2022-10-06T14:08:57.382Z,3.80
2022-10-06T14:11:29.280Z,4.00
2022-10-06T14:14:08.488Z,4.20
2022-10-06T14:16:36.180Z,4.20
2022-10-06T14:19:05.972Z,4.20
2022-10-06T14:21:41.962Z,4.10
2022-10-06T14:24:15.889Z,4.10
2022-10-06T14:26:46.554Z,4.30
2022-10-06T14:29:14.560Z,5.10
2022-10-06T14:31:44.797Z,4.30
2022-10-06T14:34:18.065Z,4.00
2022-10-06T14:36:51.366Z,4.40
2022-10-06T14:39:20.052Z,4.30
2022-10-06T14:41:47.858Z,4.20
2022-10-06T14:44:16.928Z,4.80
2022-10-06T14:46:48.937Z,4.40
2022-10-06T14:49:18.282Z,4.60
2022-10-06T14:51:47.478Z,4.90
2022-10-06T14:54:16.076Z,4.70
2022-10-06T14:56:43.808Z,5.60
2022-10-06T14:59:18.088Z,5.60
2022-10-06T15:01:50.109Z,5.20
2022-10-06T15:04:25.927Z,5.30
2022-10-06T15:07:14.598Z,6.40
2022-10-06T15:09:43.384Z,5.30
2022-10-06T15:12:12.162Z,5.90
2022-10-06T15:14:40.908Z,5.10
2022-10-06T15:17:11.263Z,5.70
2022-10-06T15:19:41.379Z,5.90
2022-10-06T15:22:11.296Z,6.80
2022-10-06T15:24:39.222Z,6.70
2022-10-06T15:27:28.847Z,7.70
2022-10-06T15:29:58.708Z,6.80
2022-10-06T15:32:27.535Z,6.40
2022-10-06T15:34:56.451Z,6.90
2022-10-06T15:37:24.131Z,8.00
2022-10-06T15:39:52.967Z,7.70
2022-10-06T15:42:25.351Z,6.70
2022-10-06T15:44:54.359Z,5.70
2022-10-06T15:47:25.396Z,5.00
2022-10-06T15:49:53.328Z,5.50
2022-10-06T15:52:23.893Z,6.20
2022-10-06T15:54:53.081Z,6.00
2022-10-06T15:57:21.559Z,6.70
2022-10-06T15:59:51.898Z,7.90
2022-10-06T16:02:22.527Z,8.60
2022-10-06T16:05:15.157Z,8.60
2022-10-06T16:07:44.184Z,9.00
2022-10-06T16:10:13.456Z,12.20
2022-10-06T16:12:41.422Z,13.30
2022-10-06T16:15:11.674Z,13.60
2022-10-06T16:17:39.741Z,14.20
2022-10-06T16:20:09.628Z,13.30
2022-10-06T16:22:37.857Z,14.70
2022-10-06T16:25:08.668Z,15.70
2022-10-06T16:27:36.573Z,14.50
2022-10-06T16:30:06.246Z,14.10
2022-10-06T16:32:34.215Z,12.90
2022-10-06T16:35:03.229Z,12.00
2022-10-06T16:37:33.537Z,11.50
2022-10-06T16:40:01.231Z,11.40
2022-10-06T16:42:29.056Z,12.40
2022-10-06T16:44:56.796Z,11.70
2022-10-06T16:47:24.511Z,11.70
2022-10-06T16:49:52.293Z,12.20
2022-10-06T16:52:20.040Z,12.30
2022-10-06T16:54:49.083Z,12.00
2022-10-06T16:57:16.931Z,12.80
2022-10-06T16:59:47.044Z,12.20
2022-10-06T17:02:16.090Z,11.80
2022-10-06T17:04:44.093Z,11.20
2022-10-06T17:07:13.144Z,11.40
2022-10-06T17:09:51.109Z,11.10
2022-10-06T17:12:29.846Z,10.90
2022-10-06T17:14:58.511Z,10.40
2022-10-06T17:17:26.264Z,10.40
2022-10-06T17:19:54.225Z,9.60
2022-10-06T17:22:23.113Z,9.80
2022-10-06T17:24:51.954Z,9.20
2022-10-06T17:27:21.642Z,9.10
2022-10-06T17:29:49.652Z,10.20
2022-10-06T17:32:18.581Z,9.90
2022-10-06T17:34:46.277Z,9.40
2022-10-06T17:37:16.390Z,9.70
2022-10-06T17:39:47.109Z,9.80
2022-10-06T17:42:17.450Z,10.80
2022-10-06T17:44:46.194Z,10.60
2022-10-06T17:47:13.935Z,9.70
2022-10-06T17:49:41.617Z,9.70
2022-10-06T17:52:09.723Z,9.70
2022-10-06T17:54:37.496Z,9.90
2022-10-06T17:57:08.837Z,9.30
2022-10-06T17:59:36.520Z,9.10
2022-10-06T18:02:08.491Z,10.20
2022-10-06T18:04:39.393Z,11.40
2022-10-06T18:07:10.492Z,10.40
2022-10-06T18:10:01.653Z,11.00
2022-10-06T18:12:36.331Z,9.90
2022-10-06T18:15:06.008Z,10.80
2022-10-06T18:17:35.243Z,11.50
2022-10-06T18:20:09.194Z,12.70
2022-10-06T18:22:36.876Z,12.70
2022-10-06T18:25:06.531Z,14.40
2022-10-06T18:27:34.423Z,16.00
2022-10-06T18:30:05.386Z,17.60
2022-10-06T18:38:12.646Z,21.20
2022-10-06T18:40:40.581Z,21.50
2022-10-06T18:43:09.128Z,22.00
2022-10-06T18:45:57.184Z,21.80
2022-10-06T18:48:58.793Z,18.70
2022-10-06T18:51:33.649Z,18.60
2022-10-06T18:54:14.113Z,17.10
2022-10-06T18:56:51.313Z,15.70
2022-10-06T18:59:23.438Z,17.20
2022-10-06T19:01:51.305Z,15.10
2022-10-06T19:04:23.242Z,15.30
2022-10-06T19:06:54.347Z,13.40
2022-10-06T19:09:28.357Z,13.20
2022-10-06T19:14:34.737Z,12.20
2022-10-06T19:17:14.375Z,12.40
2022-10-06T19:19:45.634Z,12.80
2022-10-06T19:22:16.265Z,12.40
2022-10-06T19:24:49.446Z,11.80
2022-10-06T19:27:24.466Z,13.00
2022-10-06T19:29:55.828Z,12.10
2022-10-06T19:32:32.907Z,12.30
2022-10-06T19:35:06.347Z,12.80
2022-10-06T19:37:38.352Z,10.80
2022-10-06T19:40:09.419Z,11.80
2022-10-06T19:42:50.705Z,12.10
2022-10-06T19:45:20.510Z,11.40
2022-10-06T19:47:51.467Z,12.20
2022-10-06T19:50:20.432Z,11.30
2022-10-06T19:52:48.129Z,11.90
2022-10-06T19:55:15.854Z,11.70
2022-10-06T19:57:43.989Z,13.10
2022-10-06T20:00:12.793Z,11.60
2022-10-06T20:02:46.462Z,10.90
2022-10-06T20:07:47.396Z,10.90
2022-10-06T20:10:16.843Z,10.00
2022-10-06T20:12:46.288Z,11.00
2022-10-06T20:15:15.479Z,10.10
2022-10-06T20:17:45.700Z,10.00
2022-10-06T20:20:15.800Z,9.10
2022-10-06T20:22:43.787Z,9.10
2022-10-06T20:25:12.990Z,8.90
2022-10-06T20:27:40.903Z,9.20
2022-10-06T20:30:11.994Z,9.20
2022-10-06T20:32:41.248Z,9.50
2022-10-06T20:35:09.871Z,8.90
2022-10-06T20:37:42.217Z,8.90
2022-10-06T20:40:29.497Z,8.60
2022-10-06T20:43:00.689Z,8.40
2022-10-06T20:45:30.129Z,8.40
2022-10-06T20:48:01.069Z,8.20
2022-10-06T20:50:31.193Z,7.40
2022-10-06T20:52:59.508Z,8.00
2022-10-06T20:55:28.572Z,8.20
2022-10-06T20:57:57.905Z,8.50
2022-10-06T21:00:25.884Z,7.30
2022-10-06T21:02:55.228Z,8.20
2022-10-06T21:05:23.587Z,8.00
2022-10-06T21:07:51.830Z,8.40
2022-10-06T21:10:19.837Z,8.20
2022-10-06T21:12:48.815Z,8.70
2022-10-06T21:15:17.429Z,8.60
2022-10-06T21:17:49.237Z,8.80
2022-10-06T21:20:18.059Z,8.40
2022-10-06T21:22:45.994Z,8.40
2022-10-06T21:25:13.708Z,8.10
2022-10-06T21:27:41.907Z,8.50
2022-10-06T21:30:13.192Z,8.80
2022-10-06T21:32:43.908Z,9.20
2022-10-06T21:35:11.857Z,7.90
2022-10-06T21:37:42.583Z,8.50
2022-10-06T21:40:11.573Z,7.70
2022-10-06T21:42:41.871Z,8.30
2022-10-06T21:45:11.427Z,8.10
2022-10-06T21:47:39.399Z,8.60
2022-10-06T21:50:09.215Z,8.50
2022-10-06T21:52:37.240Z,8.20
2022-10-06T21:55:06.954Z,8.00
2022-10-06T21:57:34.965Z,8.40
2022-10-06T22:00:02.964Z,8.10
2022-10-06T22:02:32.916Z,8.30
2022-10-06T22:05:02.318Z,7.80
2022-10-06T22:07:30.269Z,8.30
2022-10-06T22:09:58.241Z,9.40
2022-10-06T22:12:27.410Z,8.30
2022-10-06T22:15:00.162Z,7.80
2022-10-06T22:17:28.210Z,8.50
2022-10-06T22:19:56.222Z,8.50
2022-10-06T22:22:26.945Z,8.00
2022-10-06T22:24:56.227Z,8.20
2022-10-06T22:27:26.656Z,8.00
2022-10-06T22:29:54.829Z,8.10
2022-10-06T22:32:24.640Z,8.40
2022-10-06T22:34:53.326Z,8.80
2022-10-06T22:37:21.283Z,8.20
2022-10-06T22:39:49.333Z,8.40
2022-10-06T22:42:17.406Z,8.20
2022-10-06T22:44:45.481Z,8.20
2022-10-06T22:47:15.830Z,8.90
2022-10-06T22:49:43.568Z,9.20
2022-10-06T22:52:11.524Z,8.90
2022-10-06T22:54:39.493Z,7.70
2022-10-06T22:57:07.472Z,7.70
2022-10-06T22:59:35.425Z,8.60
2022-10-06T23:02:03.378Z,8.40
2022-10-06T23:04:34.478Z,7.90
2022-10-06T23:07:02.615Z,8.20
2022-10-06T23:09:30.581Z,8.20
2022-10-06T23:11:58.527Z,8.40
2022-10-06T23:14:26.460Z,7.90
2022-10-06T23:16:55.997Z,8.00
2022-10-06T23:19:25.353Z,8.80
2022-10-06T23:21:53.287Z,8.80
2022-10-06T23:24:21.196Z,8.50
2022-10-06T23:26:49.172Z,9.20
2022-10-06T23:29:17.428Z,8.20
2022-10-06T23:31:45.781Z,8.40
2022-10-06T23:34:14.909Z,8.60
2022-10-06T23:36:44.312Z,8.60
2022-10-06T23:39:12.283Z,7.70
2022-10-06T23:41:43.527Z,9.50
2022-10-06T23:44:11.473Z,9.10
2022-10-06T23:46:39.420Z,8.50
2022-10-06T23:49:07.423Z,8.40
2022-10-06T23:51:35.302Z,8.70
2022-10-06T23:54:03.354Z,8.70
2022-10-06T23:56:31.416Z,8.00
2022-10-06T23:58:59.418Z,7.60
